Time;durP1;ratioP1;P1;durP2;ratioP2;P2;SDS_P1;SDS_P2;PMS_P1;PMS_P2;Temp;Humidity;BMP_temperature;BMP_pressure;BME280_temperature;BME280_humidity;BME280_pressure;Samples;Min_cycle;Max_cycle;Signal;HPM_P1;HPM_P2
2022/06/26 00:01:01;;;;;;;18.45;11.73;;;;;;;;;;5073532;28;20020;-72
2022/06/26 00:03:27;;;;;;;17.05;11.88;;;;;;;;;;5067435;28;20035;-72
2022/06/26 00:05:52;;;;;;;17.55;13.15;;;;;;;;;;5058394;28;20692;-71
2022/06/26 00:08:18;;;;;;;18.73;12.40;;;;;;;;;;5061379;28;20040;-71
2022/06/26 00:10:45;;;;;;;20.05;12.73;;;;;;;;;;5070378;28;20131;-71
2022/06/26 00:13:10;;;;;;;15.32;12.88;;;;;;;;;;5060149;28;20020;-72
2022/06/26 00:15:35;;;;;;;17.40;12.73;;;;;;;;;;5060579;28;20019;-72
2022/06/26 00:18:00;;;;;;;17.83;13.18;;;;;;;;;;5060062;28;20383;-71
2022/06/26 00:20:25;;;;;;;14.93;12.03;;;;;;;;;;5060405;28;20043;-72
2022/06/26 00:22:51;;;;;;;23.40;12.52;;;;;;;;;;5061374;28;20312;-71
2022/06/26 00:25:16;;;;;;;18.53;13.77;;;;;;;;;;5062476;28;20020;-70
2022/06/26 00:27:41;;;;;;;19.53;12.97;;;;;;;;;;5062113;28;20315;-71
2022/06/26 00:30:07;;;;;;;15.82;12.15;;;;;;;;;;5056850;28;20592;-71
2022/06/26 00:32:32;;;;;;;21.05;12.85;;;;;;;;;;5060303;28;20025;-71
2022/06/26 00:34:57;;;;;;;20.30;13.07;;;;;;;;;;5062118;28;20039;-71
2022/06/26 00:37:22;;;;;;;19.97;13.47;;;;;;;;;;5054214;28;20454;-71
2022/06/26 00:39:47;;;;;;;19.00;13.37;;;;;;;;;;5060226;28;20385;-71
2022/06/26 00:42:13;;;;;;;20.08;12.30;;;;;;;;;;5065813;28;20284;-71
2022/06/26 00:44:38;;;;;;;20.70;12.73;;;;;;;;;;5060526;28;20489;-71
2022/06/26 00:47:03;;;;;;;23.10;13.97;;;;;;;;;;5062053;28;20074;-71
2022/06/26 00:49:28;;;;;;;21.55;14.43;;;;;;;;;;5072873;28;20287;-71
2022/06/26 00:51:54;;;;;;;20.58;14.80;;;;;;;;;;5065162;28;20074;-71
2022/06/26 00:54:21;;;;;;;22.80;14.55;;;;;;;;;;5060884;28;20031;-71
2022/06/26 00:56:46;;;;;;;21.20;14.25;;;;;;;;;;5060387;28;20383;-71
2022/06/26 00:59:12;;;;;;;19.77;13.70;;;;;;;;;;5057004;28;20020;-71
2022/06/26 01:01:38;;;;;;;23.63;14.40;;;;;;;;;;5054188;28;20462;-71
2022/06/26 01:04:03;;;;;;;21.05;13.90;;;;;;;;;;5071887;28;20023;-71
2022/06/26 01:06:29;;;;;;;23.07;15.30;;;;;;;;;;5064777;28;20029;-71
2022/06/26 01:08:54;;;;;;;21.75;14.90;;;;;;;;;;5061016;28;20277;-71
2022/06/26 01:11:20;;;;;;;23.02;15.52;;;;;;;;;;5062271;28;20035;-71
2022/06/26 01:13:50;;;;;;;20.73;14.65;;;;;;;;;;5063420;28;20059;-71
2022/06/26 01:16:19;;;;;;;20.25;15.27;;;;;;;;;;5055492;28;20013;-71
2022/06/26 01:18:45;;;;;;;24.02;15.55;;;;;;;;;;5059487;28;20074;-71
2022/06/26 01:21:10;;;;;;;21.50;15.57;;;;;;;;;;5064122;28;20070;-71
2022/06/26 01:23:36;;;;;;;22.20;14.82;;;;;;;;;;5063188;28;20024;-71
2022/06/26 01:26:01;;;;;;;24.73;15.15;;;;;;;;;;5058733;28;20078;-71
2022/06/26 01:28:26;;;;;;;21.60;13.60;;;;;;;;;;5065765;28;20128;-71
2022/06/26 01:30:51;;;;;;;19.57;13.80;;;;;;;;;;5063096;28;20815;-71
2022/06/26 01:33:16;;;;;;;18.67;12.87;;;;;;;;;;5063722;28;20128;-71
2022/06/26 01:35:42;;;;;;;20.42;13.35;;;;;;;;;;5056474;28;20516;-71
2022/06/26 01:38:08;;;;;;;20.37;13.57;;;;;;;;;;5061821;28;20020;-71
2022/06/26 01:40:33;;;;;;;17.55;13.35;;;;;;;;;;5053926;28;20260;-71
2022/06/26 01:42:59;;;;;;;21.70;14.43;;;;;;;;;;5058498;28;20025;-71
2022/06/26 01:45:24;;;;;;;20.52;12.80;;;;;;;;;;5060347;28;20040;-72
2022/06/26 01:47:49;;;;;;;19.40;13.02;;;;;;;;;;5062636;28;20489;-72
2022/06/26 01:50:14;;;;;;;18.93;13.43;;;;;;;;;;5064609;28;20036;-71
2022/06/26 01:52:40;;;;;;;21.47;14.30;;;;;;;;;;5061752;28;20485;-71
2022/06/26 01:55:05;;;;;;;21.67;14.53;;;;;;;;;;5061734;28;20017;-71
2022/06/26 01:57:30;;;;;;;22.95;14.63;;;;;;;;;;5062563;28;20360;-72
2022/06/26 01:59:55;;;;;;;23.17;14.07;;;;;;;;;;5061109;28;20021;-71
2022/06/26 02:02:20;;;;;;;24.25;15.63;;;;;;;;;;5061319;28;20735;-72
2022/06/26 02:04:46;;;;;;;22.33;14.60;;;;;;;;;;5065632;28;20109;-71
2022/06/26 02:07:11;;;;;;;26.38;14.70;;;;;;;;;;5054522;28;20122;-71
2022/06/26 02:15:05;;;;;;;20.35;14.40;;;;;;;;;;5061393;28;20095;-72
2022/06/26 02:17:30;;;;;;;20.00;13.25;;;;;;;;;;5050939;28;20490;-72
2022/06/26 02:19:56;;;;;;;22.92;15.23;;;;;;;;;;5063240;28;20095;-71
2022/06/26 02:22:21;;;;;;;27.20;15.27;;;;;;;;;;5061351;28;20061;-71
2022/06/26 02:24:46;;;;;;;24.77;15.50;;;;;;;;;;5067654;28;20035;-71
2022/06/26 02:27:11;;;;;;;25.43;15.27;;;;;;;;;;5055206;28;20054;-72
2022/06/26 02:29:36;;;;;;;27.07;15.83;;;;;;;;;;5068054;28;20028;-70
2022/06/26 02:32:01;;;;;;;22.58;15.00;;;;;;;;;;5060693;28;20834;-71
2022/06/26 02:34:27;;;;;;;24.13;15.63;;;;;;;;;;5070571;28;20025;-75
2022/06/26 02:36:52;;;;;;;25.65;15.35;;;;;;;;;;5069591;28;20071;-72
2022/06/26 02:39:17;;;;;;;25.02;15.68;;;;;;;;;;5061449;28;20495;-71
2022/06/26 02:41:42;;;;;;;23.87;15.97;;;;;;;;;;5064097;28;20028;-72
2022/06/26 02:44:07;;;;;;;23.92;15.52;;;;;;;;;;5063170;28;20372;-72
2022/06/26 02:46:32;;;;;;;23.97;15.53;;;;;;;;;;5064353;28;20024;-72
2022/06/26 02:48:57;;;;;;;27.53;15.87;;;;;;;;;;5065939;28;20505;-73
2022/06/26 02:51:23;;;;;;;27.73;16.47;;;;;;;;;;5063100;28;20355;-72
2022/06/26 02:53:48;;;;;;;25.52;16.40;;;;;;;;;;5054507;28;20024;-72
2022/06/26 02:56:13;;;;;;;30.37;17.93;;;;;;;;;;5064359;28;20024;-72
2022/06/26 02:58:38;;;;;;;34.38;19.13;;;;;;;;;;5062386;28;20103;-71
2022/06/26 03:01:04;;;;;;;31.33;16.87;;;;;;;;;;5064200;28;20131;-72
2022/06/26 03:03:29;;;;;;;34.85;17.52;;;;;;;;;;5064568;28;20032;-71
2022/06/26 03:05:54;;;;;;;33.63;16.90;;;;;;;;;;5064350;28;20020;-72
2022/06/26 03:08:19;;;;;;;34.33;18.80;;;;;;;;;;5069468;28;20143;-72
2022/06/26 03:10:44;;;;;;;31.73;18.50;;;;;;;;;;5064963;28;20281;-72
2022/06/26 03:13:10;;;;;;;38.03;19.87;;;;;;;;;;5061320;28;20266;-71
2022/06/26 03:15:35;;;;;;;32.50;18.47;;;;;;;;;;5067800;28;20131;-72
2022/06/26 03:18:02;;;;;;;34.40;18.17;;;;;;;;;;5069449;28;20274;-72
2022/06/26 03:20:27;;;;;;;34.88;18.52;;;;;;;;;;5053313;28;20048;-71
2022/06/26 03:22:53;;;;;;;38.33;19.17;;;;;;;;;;5057970;28;20028;-71
2022/06/26 03:25:18;;;;;;;36.67;18.53;;;;;;;;;;5068457;28;20036;-72
2022/06/26 03:27:43;;;;;;;34.40;17.43;;;;;;;;;;5060406;28;20382;-72
2022/06/26 03:30:09;;;;;;;34.93;19.43;;;;;;;;;;5054809;28;20293;-71
2022/06/26 03:32:35;;;;;;;29.45;16.98;;;;;;;;;;5067415;28;20673;-72
2022/06/26 03:35:00;;;;;;;32.88;17.92;;;;;;;;;;5058666;28;20383;-71
2022/06/26 03:37:25;;;;;;;35.33;18.83;;;;;;;;;;5066057;28;20107;-71
2022/06/26 03:39:50;;;;;;;34.03;18.38;;;;;;;;;;5063541;28;20107;-71
2022/06/26 03:42:16;;;;;;;35.55;17.83;;;;;;;;;;5061134;28;20456;-71
2022/06/26 03:44:41;;;;;;;43.73;18.97;;;;;;;;;;5064170;28;20093;-71
2022/06/26 03:47:06;;;;;;;40.13;19.83;;;;;;;;;;5064634;28;20036;-72
2022/06/26 03:49:31;;;;;;;38.13;18.83;;;;;;;;;;5069962;28;20534;-72
2022/06/26 03:51:56;;;;;;;45.03;22.33;;;;;;;;;;5062694;28;20130;-72
2022/06/26 03:54:21;;;;;;;41.20;19.13;;;;;;;;;;5062050;28;20319;-74
2022/06/26 03:56:47;;;;;;;39.13;19.77;;;;;;;;;;5066400;28;20401;-73
2022/06/26 03:59:12;;;;;;;38.03;18.75;;;;;;;;;;5057540;28;20754;-74
2022/06/26 04:01:38;;;;;;;35.05;18.13;;;;;;;;;;5063934;28;20112;-72
2022/06/26 04:04:03;;;;;;;35.20;19.60;;;;;;;;;;5052964;28;20116;-73
2022/06/26 04:06:28;;;;;;;34.92;17.85;;;;;;;;;;5063262;28;20063;-73
2022/06/26 04:08:53;;;;;;;36.17;17.53;;;;;;;;;;5054025;28;20115;-72
2022/06/26 04:11:19;;;;;;;35.10;17.13;;;;;;;;;;5059820;28;20459;-72
2022/06/26 04:13:44;;;;;;;31.10;16.20;;;;;;;;;;5058182;28;20265;-73
2022/06/26 04:16:09;;;;;;;32.53;16.97;;;;;;;;;;5058526;28;20131;-72
2022/06/26 04:18:34;;;;;;;34.58;17.15;;;;;;;;;;5075253;28;20024;-72
2022/06/26 04:21:00;;;;;;;30.83;15.93;;;;;;;;;;5058880;28;20020;-71
2022/06/26 04:23:25;;;;;;;31.23;14.87;;;;;;;;;;5062848;28;20123;-73
2022/06/26 04:25:50;;;;;;;30.77;13.63;;;;;;;;;;5069461;28;20442;-71
2022/06/26 04:28:15;;;;;;;28.67;13.73;;;;;;;;;;5060863;28;20454;-72
2022/06/26 04:30:40;;;;;;;24.95;12.20;;;;;;;;;;5062895;28;20134;-72
2022/06/26 04:33:06;;;;;;;26.20;12.88;;;;;;;;;;5055824;28;20355;-72
2022/06/26 04:35:31;;;;;;;24.90;13.67;;;;;;;;;;5065445;28;20028;-71
2022/06/26 04:37:56;;;;;;;24.50;12.75;;;;;;;;;;5057660;28;20277;-71
2022/06/26 04:40:22;;;;;;;24.80;13.32;;;;;;;;;;5064224;28;20131;-72
2022/06/26 04:42:47;;;;;;;26.43;13.03;;;;;;;;;;5058803;28;20024;-72
2022/06/26 04:45:12;;;;;;;23.83;12.88;;;;;;;;;;5061081;28;20034;-71
2022/06/26 04:47:38;;;;;;;26.23;14.48;;;;;;;;;;5062845;28;20099;-72
2022/06/26 04:50:04;;;;;;;26.48;13.27;;;;;;;;;;5060296;28;20032;-71
2022/06/26 04:52:29;;;;;;;26.85;13.55;;;;;;;;;;5063272;28;20137;-71
2022/06/26 04:54:54;;;;;;;27.15;12.98;;;;;;;;;;5066226;28;20104;-70
2022/06/26 04:57:19;;;;;;;25.75;13.30;;;;;;;;;;5063879;28;20411;-71
2022/06/26 04:59:44;;;;;;;26.63;13.57;;;;;;;;;;5052826;28;20029;-71
2022/06/26 05:02:10;;;;;;;24.17;12.33;;;;;;;;;;5060925;28;20025;-71
2022/06/26 05:04:35;;;;;;;23.83;12.07;;;;;;;;;;5064746;28;20355;-71
2022/06/26 05:07:00;;;;;;;28.45;14.70;;;;;;;;;;5053843;28;20119;-70
2022/06/26 05:09:26;;;;;;;19.60;12.47;;;;;;;;;;5061116;28;20042;-70
2022/06/26 05:11:52;;;;;;;22.77;12.82;;;;;;;;;;5057411;28;20049;-71
2022/06/26 05:14:18;;;;;;;25.60;12.95;;;;;;;;;;5058345;28;20035;-71
2022/06/26 05:16:43;;;;;;;22.45;12.73;;;;;;;;;;5068386;28;20474;-71
2022/06/26 05:19:08;;;;;;;22.53;12.30;;;;;;;;;;5059443;28;20111;-71
2022/06/26 05:21:33;;;;;;;21.02;11.85;;;;;;;;;;5061808;28;20035;-70
2022/06/26 05:23:58;;;;;;;25.60;11.07;;;;;;;;;;5067490;28;20051;-71
2022/06/26 05:26:24;;;;;;;24.50;12.87;;;;;;;;;;5071262;28;20054;-72
2022/06/26 05:28:49;;;;;;;20.02;11.93;;;;;;;;;;5062432;28;20288;-70
2022/06/26 05:31:15;;;;;;;20.48;11.73;;;;;;;;;;5055373;28;20530;-71
2022/06/26 05:33:40;;;;;;;20.92;10.57;;;;;;;;;;5057137;28;20036;-71
2022/06/26 05:36:07;;;;;;;23.73;12.32;;;;;;;;;;5060315;28;20035;-70
2022/06/26 05:38:32;;;;;;;15.40;9.00;;;;;;;;;;5059349;28;20550;-71
2022/06/26 05:40:58;;;;;;;18.50;9.90;;;;;;;;;;5064282;28;20028;-71
2022/06/26 05:43:24;;;;;;;18.73;9.18;;;;;;;;;;5061642;28;20323;-72
2022/06/26 05:45:49;;;;;;;18.93;10.23;;;;;;;;;;5060202;28;20024;-71
2022/06/26 05:48:14;;;;;;;15.87;9.00;;;;;;;;;;5069126;28;20039;-71
2022/06/26 05:50:39;;;;;;;17.60;8.93;;;;;;;;;;5072788;28;20124;-71
2022/06/26 05:53:04;;;;;;;16.08;9.80;;;;;;;;;;5053383;28;20037;-71
2022/06/26 05:55:30;;;;;;;17.08;8.75;;;;;;;;;;5065995;28;20055;-71
2022/06/26 05:57:55;;;;;;;15.93;8.40;;;;;;;;;;5059817;28;20095;-69
2022/06/26 06:00:20;;;;;;;18.05;9.05;;;;;;;;;;5068170;28;20107;-69
2022/06/26 06:02:45;;;;;;;15.30;8.23;;;;;;;;;;5062080;28;20032;-70
2022/06/26 06:05:11;;;;;;;15.27;8.13;;;;;;;;;;5063390;28;20029;-70
2022/06/26 06:07:36;;;;;;;13.32;7.85;;;;;;;;;;5057138;28;20565;-72
2022/06/26 06:10:03;;;;;;;14.98;8.52;;;;;;;;;;5061340;28;20039;-71
2022/06/26 06:12:28;;;;;;;13.82;9.02;;;;;;;;;;5064448;28;20043;-71
2022/06/26 06:14:53;;;;;;;17.17;7.80;;;;;;;;;;5060431;28;20016;-71
2022/06/26 06:17:37;;;;;;;15.80;7.53;;;;;;;;;;5059818;28;20281;-71
2022/06/26 06:20:06;;;;;;;11.38;7.13;;;;;;;;;;5067673;28;20482;-71
2022/06/26 06:22:31;;;;;;;14.80;6.78;;;;;;;;;;5065646;28;20538;-75
2022/06/26 06:24:56;;;;;;;12.55;8.00;;;;;;;;;;5061685;28;20021;-73
2022/06/26 06:27:22;;;;;;;12.37;7.67;;;;;;;;;;5069977;28;20032;-72
2022/06/26 06:29:47;;;;;;;8.83;6.77;;;;;;;;;;5059661;28;20297;-71
2022/06/26 06:32:12;;;;;;;11.23;7.07;;;;;;;;;;5054991;28;20414;-72
2022/06/26 06:34:37;;;;;;;8.73;6.20;;;;;;;;;;5057591;28;20024;-73
2022/06/26 06:37:02;;;;;;;15.15;7.13;;;;;;;;;;5062968;28;20265;-73
2022/06/26 06:39:28;;;;;;;12.20;6.50;;;;;;;;;;5067567;28;20028;-73
2022/06/26 06:41:53;;;;;;;8.55;6.15;;;;;;;;;;5068367;28;20027;-73
2022/06/26 06:44:18;;;;;;;11.40;6.37;;;;;;;;;;5063498;28;20036;-71
2022/06/26 06:46:43;;;;;;;11.25;6.18;;;;;;;;;;5056489;28;20032;-71
2022/06/26 06:49:08;;;;;;;9.77;6.77;;;;;;;;;;5058570;28;20047;-69
2022/06/26 06:51:34;;;;;;;7.78;5.40;;;;;;;;;;5058836;28;20059;-72
2022/06/26 06:53:59;;;;;;;11.02;6.47;;;;;;;;;;5064348;28;20028;-73
2022/06/26 06:56:24;;;;;;;11.98;6.53;;;;;;;;;;5061226;28;20032;-73
2022/06/26 06:58:49;;;;;;;10.40;6.72;;;;;;;;;;5051905;28;20120;-72
2022/06/26 07:01:14;;;;;;;9.30;6.50;;;;;;;;;;5056017;28;20025;-72
2022/06/26 07:03:40;;;;;;;10.80;6.70;;;;;;;;;;5060759;28;20016;-71
2022/06/26 07:06:05;;;;;;;12.77;7.68;;;;;;;;;;5056020;28;20281;-75
2022/06/26 07:08:30;;;;;;;13.63;7.17;;;;;;;;;;5056372;28;20032;-73
2022/06/26 07:10:55;;;;;;;15.52;8.88;;;;;;;;;;5054180;28;20059;-72
2022/06/26 07:13:21;;;;;;;12.63;7.00;;;;;;;;;;5054977;28;20029;-71
2022/06/26 07:15:46;;;;;;;11.07;7.13;;;;;;;;;;5056721;28;20017;-72
2022/06/26 07:18:11;;;;;;;13.57;7.00;;;;;;;;;;5056846;28;20554;-74
2022/06/26 07:20:37;;;;;;;10.95;6.65;;;;;;;;;;5070587;28;20039;-75
2022/06/26 07:23:02;;;;;;;10.80;5.63;;;;;;;;;;5057319;28;20116;-73
2022/06/26 07:25:27;;;;;;;13.13;6.15;;;;;;;;;;5059237;28;20136;-71
2022/06/26 07:27:53;;;;;;;11.73;5.60;;;;;;;;;;5058022;28;20029;-73
2022/06/26 07:30:19;;;;;;;13.50;5.97;;;;;;;;;;5057413;28;20024;-76
2022/06/26 07:32:44;;;;;;;12.02;6.55;;;;;;;;;;5054881;28;20099;-71
2022/06/26 07:35:10;;;;;;;9.00;5.18;;;;;;;;;;5059650;28;20030;-73
2022/06/26 07:37:35;;;;;;;11.80;6.25;;;;;;;;;;5061760;28;20502;-74
2022/06/26 07:40:00;;;;;;;10.10;5.57;;;;;;;;;;5063121;28;20103;-70
2022/06/26 07:42:25;;;;;;;9.40;4.60;;;;;;;;;;5059075;28;20273;-70
2022/06/26 07:44:50;;;;;;;9.83;5.00;;;;;;;;;;5063569;28;20030;-71
2022/06/26 07:47:15;;;;;;;11.27;6.33;;;;;;;;;;5056313;28;20102;-74
2022/06/26 07:49:41;;;;;;;10.33;6.10;;;;;;;;;;5069011;28;20278;-79
2022/06/26 07:52:06;;;;;;;10.07;5.43;;;;;;;;;;5061563;28;20330;-74
2022/06/26 07:54:31;;;;;;;9.67;6.07;;;;;;;;;;5063519;28;20035;-74
2022/06/26 07:56:57;;;;;;;10.95;5.30;;;;;;;;;;5057612;28;20265;-72
2022/06/26 07:59:22;;;;;;;11.18;6.18;;;;;;;;;;5056682;28;20040;-75
2022/06/26 08:01:47;;;;;;;9.50;5.70;;;;;;;;;;5058995;28;20040;-75
2022/06/26 08:04:12;;;;;;;10.30;6.00;;;;;;;;;;5060026;28;20267;-73
2022/06/26 08:06:38;;;;;;;9.57;6.03;;;;;;;;;;5053541;28;20650;-74
2022/06/26 08:09:03;;;;;;;11.13;6.37;;;;;;;;;;5061656;28;20265;-74
2022/06/26 08:11:28;;;;;;;16.98;6.47;;;;;;;;;;5059111;28;20546;-74
2022/06/26 08:13:53;;;;;;;13.40;6.20;;;;;;;;;;5046382;28;20028;-74
2022/06/26 08:16:19;;;;;;;9.77;6.03;;;;;;;;;;5054077;28;20397;-75
2022/06/26 08:18:44;;;;;;;11.35;6.07;;;;;;;;;;5056176;28;20114;-75
2022/06/26 08:23:53;;;;;;;9.88;5.82;;;;;;;;;;5057524;28;20662;-77
2022/06/26 08:26:18;;;;;;;10.93;5.87;;;;;;;;;;5057024;28;20032;-75
2022/06/26 08:28:43;;;;;;;8.02;5.22;;;;;;;;;;5058274;28;20269;-74
2022/06/26 08:31:09;;;;;;;8.73;5.63;;;;;;;;;;5056202;28;20078;-75
2022/06/26 08:33:34;;;;;;;7.20;4.97;;;;;;;;;;5056280;28;20375;-74
2022/06/26 08:35:59;;;;;;;7.43;5.13;;;;;;;;;;5058914;28;20029;-74
2022/06/26 08:38:24;;;;;;;9.80;4.97;;;;;;;;;;5056038;28;20382;-74
2022/06/26 08:40:50;;;;;;;14.07;5.10;;;;;;;;;;5054404;28;20738;-74
2022/06/26 08:43:17;;;;;;;9.75;5.38;;;;;;;;;;5055148;28;20027;-74
2022/06/26 08:45:43;;;;;;;9.45;5.65;;;;;;;;;;5056788;28;20020;-73
2022/06/26 08:48:09;;;;;;;11.68;5.47;;;;;;;;;;5055460;28;20028;-74
2022/06/26 08:50:34;;;;;;;9.63;5.60;;;;;;;;;;5055200;28;20047;-75
2022/06/26 08:53:00;;;;;;;5.87;4.53;;;;;;;;;;5057101;28;20024;-74
2022/06/26 08:55:26;;;;;;;8.73;5.40;;;;;;;;;;5060727;28;20297;-74
2022/06/26 08:57:51;;;;;;;8.32;4.90;;;;;;;;;;5056790;28;20371;-74
2022/06/26 09:00:17;;;;;;;10.67;5.97;;;;;;;;;;5056921;28;20029;-76
2022/06/26 09:02:42;;;;;;;11.90;6.95;;;;;;;;;;5060376;28;20033;-73
2022/06/26 09:05:08;;;;;;;10.40;6.30;;;;;;;;;;5059406;28;20071;-75
2022/06/26 09:07:42;;;;;;;12.93;6.43;;;;;;;;;;5060197;28;20028;-77
2022/06/26 09:10:08;;;;;;;11.27;6.55;;;;;;;;;;5051792;28;20347;-75
2022/06/26 09:12:36;;;;;;;10.52;6.65;;;;;;;;;;5058731;28;20723;-77
2022/06/26 09:15:02;;;;;;;8.88;6.20;;;;;;;;;;5055432;28;20012;-76
2022/06/26 09:17:27;;;;;;;10.40;6.43;;;;;;;;;;5064709;28;20028;-74
2022/06/26 09:19:54;;;;;;;10.18;6.30;;;;;;;;;;5062075;28;20024;-73
2022/06/26 09:22:22;;;;;;;8.77;6.35;;;;;;;;;;5059729;28;20075;-74
2022/06/26 09:24:57;;;;;;;12.20;5.93;;;;;;;;;;5064213;28;20027;-73
2022/06/26 09:27:23;;;;;;;12.43;5.97;;;;;;;;;;5057935;28;20043;-74
2022/06/26 09:29:49;;;;;;;7.82;5.50;;;;;;;;;;5058112;28;20021;-72
2022/06/26 09:32:15;;;;;;;15.98;5.07;;;;;;;;;;5054685;28;20052;-80
2022/06/26 09:34:45;;;;;;;7.30;4.30;;;;;;;;;;5061303;28;20130;-79
2022/06/26 09:37:10;;;;;;;6.78;5.38;;;;;;;;;;5055042;28;20025;-75
2022/06/26 09:39:36;;;;;;;9.55;6.05;;;;;;;;;;5064160;28;20023;-71
2022/06/26 09:42:19;;;;;;;9.55;5.20;;;;;;;;;;5060258;28;20485;-77
2022/06/26 09:44:45;;;;;;;7.37;4.27;;;;;;;;;;5059646;28;20479;-72
2022/06/26 09:47:23;;;;;;;7.35;4.70;;;;;;;;;;5059441;28;20602;-73
2022/06/26 09:49:49;;;;;;;10.07;4.30;;;;;;;;;;5064903;28;20062;-74
2022/06/26 09:52:15;;;;;;;10.57;4.25;;;;;;;;;;5058685;28;20474;-73
2022/06/26 09:54:40;;;;;;;8.00;5.30;;;;;;;;;;5063832;28;20029;-73
2022/06/26 09:57:05;;;;;;;7.25;5.30;;;;;;;;;;5060455;28;20303;-72
2022/06/26 09:59:32;;;;;;;6.05;4.70;;;;;;;;;;5058877;28;20070;-75
2022/06/26 10:07:25;;;;;;;5.82;4.93;;;;;;;;;;5059043;28;20035;-74
2022/06/26 10:09:51;;;;;;;9.97;5.33;;;;;;;;;;5056975;28;20028;-75
2022/06/26 10:12:17;;;;;;;9.95;6.05;;;;;;;;;;5054187;28;20265;-73
2022/06/26 10:14:43;;;;;;;7.82;5.28;;;;;;;;;;5064707;28;20584;-72
2022/06/26 10:17:20;;;;;;;12.32;6.25;;;;;;;;;;5055690;28;20207;-75
2022/06/26 10:20:04;;;;;;;5.85;4.85;;;;;;;;;;5064342;28;20028;-74
2022/06/26 10:22:39;;;;;;;10.48;4.88;;;;;;;;;;5062851;28;20028;-72
2022/06/26 10:25:05;;;;;;;6.43;4.82;;;;;;;;;;5064177;28;20504;-77
2022/06/26 10:27:31;;;;;;;5.20;4.38;;;;;;;;;;5062838;28;20028;-74
2022/06/26 10:30:02;;;;;;;7.22;4.70;;;;;;;;;;5063926;28;20151;-76
2022/06/26 10:32:28;;;;;;;10.43;4.63;;;;;;;;;;5061434;28;20029;-73
2022/06/26 10:34:56;;;;;;;7.50;5.00;;;;;;;;;;5062770;28;20509;-72
2022/06/26 10:37:21;;;;;;;6.78;4.40;;;;;;;;;;5060750;28;20024;-72
2022/06/26 10:39:49;;;;;;;7.00;4.80;;;;;;;;;;5063528;28;20039;-74
2022/06/26 10:45:07;;;;;;;8.45;5.60;;;;;;;;;;5064780;28;20032;-72
2022/06/26 10:47:48;;;;;;;7.80;4.25;;;;;;;;;;5064996;28;20029;-71
2022/06/26 10:50:32;;;;;;;8.00;4.75;;;;;;;;;;5062490;28;20028;-72
2022/06/26 10:53:20;;;;;;;6.45;5.18;;;;;;;;;;5066165;28;20553;-73
2022/06/26 10:55:52;;;;;;;6.20;4.90;;;;;;;;;;5068309;28;20074;-75
2022/06/26 10:58:19;;;;;;;9.77;5.20;;;;;;;;;;5065257;28;20757;-74
2022/06/26 11:00:45;;;;;;;9.77;5.57;;;;;;;;;;5059165;28;20028;-73
2022/06/26 11:03:13;;;;;;;6.75;4.88;;;;;;;;;;5063325;28;20481;-75
2022/06/26 11:05:39;;;;;;;7.97;5.13;;;;;;;;;;5062898;28;20024;-73
2022/06/26 11:08:04;;;;;;;7.97;5.43;;;;;;;;;;5064381;28;20066;-74
2022/06/26 11:10:29;;;;;;;9.40;5.15;;;;;;;;;;5062242;28;20136;-76
2022/06/26 11:12:54;;;;;;;6.80;5.57;;;;;;;;;;5063769;28;20051;-75
2022/06/26 11:15:21;;;;;;;8.30;6.10;;;;;;;;;;5066009;28;20013;-73
2022/06/26 11:17:57;;;;;;;10.13;4.95;;;;;;;;;;5061397;28;21266;-73
2022/06/26 11:23:20;;;;;;;5.25;3.88;;;;;;;;;;5056568;28;20074;-74
2022/06/26 11:25:46;;;;;;;6.82;4.00;;;;;;;;;;5064122;28;20540;-75
2022/06/26 11:28:12;;;;;;;8.85;3.85;;;;;;;;;;5061615;28;20100;-74
2022/06/26 11:30:38;;;;;;;9.60;4.55;;;;;;;;;;5065038;28;20047;-75
2022/06/26 11:33:03;;;;;;;6.32;4.50;;;;;;;;;;5058820;28;20487;-78
2022/06/26 11:35:29;;;;;;;7.55;4.80;;;;;;;;;;5057720;28;20427;-73
2022/06/26 11:37:54;;;;;;;7.28;4.97;;;;;;;;;;5052795;28;20049;-73
2022/06/26 11:40:19;;;;;;;6.47;4.63;;;;;;;;;;5056073;28;20028;-76
2022/06/26 11:42:45;;;;;;;12.13;4.57;;;;;;;;;;5062924;28;20056;-71
2022/06/26 11:45:20;;;;;;;8.35;4.10;;;;;;;;;;5060607;28;20065;-75
2022/06/26 11:47:45;;;;;;;9.35;4.38;;;;;;;;;;5059688;28;20051;-75
2022/06/26 11:50:20;;;;;;;7.20;4.63;;;;;;;;;;5054944;28;20720;-73
2022/06/26 11:52:52;;;;;;;11.80;4.63;;;;;;;;;;5059110;28;20265;-74
2022/06/26 11:55:18;;;;;;;8.50;3.47;;;;;;;;;;5058646;28;20024;-75
2022/06/26 11:57:43;;;;;;;8.67;4.07;;;;;;;;;;5056978;28;20033;-74
2022/06/26 12:00:09;;;;;;;7.13;3.70;;;;;;;;;;5049778;28;20351;-71
2022/06/26 12:02:39;;;;;;;6.20;3.70;;;;;;;;;;5059465;28;20028;-72
2022/06/26 12:05:05;;;;;;;7.07;4.28;;;;;;;;;;5056263;28;20085;-75
2022/06/26 12:07:43;;;;;;;6.55;3.78;;;;;;;;;;5058824;28;20040;-71
2022/06/26 12:10:09;;;;;;;7.88;4.28;;;;;;;;;;5056641;28;20027;-72
2022/06/26 12:12:34;;;;;;;7.18;5.13;;;;;;;;;;5061232;28;20025;-75
2022/06/26 12:14:59;;;;;;;8.43;5.50;;;;;;;;;;5060214;28;20024;-73
2022/06/26 12:17:26;;;;;;;6.28;5.68;;;;;;;;;;5062723;28;20785;-72
2022/06/26 12:19:51;;;;;;;7.70;5.38;;;;;;;;;;5055950;28;20043;-72
2022/06/26 12:22:45;;;;;;;10.25;5.78;;;;;;;;;;5055279;28;20016;-74
2022/06/26 12:25:11;;;;;;;5.93;4.38;;;;;;;;;;5046370;28;20054;-77
2022/06/26 12:27:36;;;;;;;5.07;4.10;;;;;;;;;;5064173;28;20043;-71
2022/06/26 12:30:02;;;;;;;4.32;3.53;;;;;;;;;;5061200;28;20332;-75
2022/06/26 12:32:27;;;;;;;10.48;4.13;;;;;;;;;;5056836;28;20041;-74
2022/06/26 12:34:53;;;;;;;8.57;6.47;;;;;;;;;;5062346;28;20047;-70
2022/06/26 12:37:18;;;;;;;9.70;6.80;;;;;;;;;;5066339;28;20350;-70
2022/06/26 12:39:44;;;;;;;8.77;6.38;;;;;;;;;;5058702;28;20028;-71
2022/06/26 12:42:09;;;;;;;11.57;7.03;;;;;;;;;;5060663;28;20031;-73
2022/06/26 12:44:34;;;;;;;8.03;5.40;;;;;;;;;;5063677;28;20044;-73
2022/06/26 12:46:59;;;;;;;5.90;4.15;;;;;;;;;;5058635;28;20762;-71
2022/06/26 12:49:24;;;;;;;6.95;4.60;;;;;;;;;;5063568;28;20025;-76
2022/06/26 12:51:52;;;;;;;8.87;4.13;;;;;;;;;;5062158;28;20025;-71
2022/06/26 12:54:17;;;;;;;5.47;3.78;;;;;;;;;;5059298;28;20261;-74
2022/06/26 12:56:42;;;;;;;5.67;4.40;;;;;;;;;;5062174;28;20031;-71
2022/06/26 12:59:07;;;;;;;8.20;3.73;;;;;;;;;;5064024;28;20272;-70
2022/06/26 13:01:32;;;;;;;7.53;3.70;;;;;;;;;;5058466;28;20640;-73
2022/06/26 13:03:58;;;;;;;5.37;3.07;;;;;;;;;;5061597;28;20101;-70
2022/06/26 13:06:23;;;;;;;7.13;3.10;;;;;;;;;;5053883;28;20392;-74
2022/06/26 13:08:48;;;;;;;7.83;3.10;;;;;;;;;;5057909;28;20359;-72
2022/06/26 13:11:22;;;;;;;4.93;3.23;;;;;;;;;;5062217;28;20273;-71
2022/06/26 13:13:48;;;;;;;7.13;3.60;;;;;;;;;;5058507;28;20356;-71
2022/06/26 13:16:13;;;;;;;6.05;4.00;;;;;;;;;;5055980;28;20061;-73
2022/06/26 13:18:38;;;;;;;4.97;4.03;;;;;;;;;;5063601;28;20024;-73
2022/06/26 13:21:03;;;;;;;5.63;4.88;;;;;;;;;;5058323;28;20305;-73
2022/06/26 13:23:29;;;;;;;8.70;5.20;;;;;;;;;;5064556;28;20075;-73
2022/06/26 13:25:54;;;;;;;7.13;5.15;;;;;;;;;;5056713;28;20020;-72
2022/06/26 13:28:19;;;;;;;8.60;4.63;;;;;;;;;;5060075;28;20063;-79
2022/06/26 13:30:44;;;;;;;9.23;5.00;;;;;;;;;;5051734;28;20025;-71
2022/06/26 13:33:10;;;;;;;6.03;3.47;;;;;;;;;;5060317;28;20116;-71
2022/06/26 13:35:35;;;;;;;6.22;3.00;;;;;;;;;;5060974;28;20012;-72
2022/06/26 13:38:00;;;;;;;3.75;3.00;;;;;;;;;;5063681;28;20693;-71
2022/06/26 13:40:25;;;;;;;6.85;3.80;;;;;;;;;;5062652;28;20028;-72
2022/06/26 13:42:50;;;;;;;5.60;3.63;;;;;;;;;;5058646;28;20106;-73
2022/06/26 13:45:16;;;;;;;6.05;3.65;;;;;;;;;;5064094;28;20495;-70
2022/06/26 13:47:42;;;;;;;5.50;4.22;;;;;;;;;;5057887;28;20029;-71
2022/06/26 13:50:08;;;;;;;7.90;3.90;;;;;;;;;;5056490;28;20110;-73
2022/06/26 13:52:33;;;;;;;6.97;4.32;;;;;;;;;;5059218;28;20624;-72
2022/06/26 13:54:58;;;;;;;8.23;5.20;;;;;;;;;;5069392;28;20478;-70
2022/06/26 13:57:23;;;;;;;5.30;4.35;;;;;;;;;;5063238;28;20028;-73
2022/06/26 13:59:48;;;;;;;8.40;4.93;;;;;;;;;;5063351;28;20123;-72
2022/06/26 14:02:13;;;;;;;9.55;4.28;;;;;;;;;;5060131;28;20273;-71
2022/06/26 14:04:39;;;;;;;6.93;3.80;;;;;;;;;;5064498;28;20042;-71
2022/06/26 14:07:04;;;;;;;8.63;4.57;;;;;;;;;;5059527;28;20285;-73
2022/06/26 14:09:29;;;;;;;6.47;3.65;;;;;;;;;;5060273;28;20087;-72
2022/06/26 14:11:54;;;;;;;6.50;3.57;;;;;;;;;;5057565;28;20028;-73
2022/06/26 14:14:19;;;;;;;6.87;4.13;;;;;;;;;;5060408;28;20386;-71
2022/06/26 14:16:44;;;;;;;3.17;2.27;;;;;;;;;;5057174;28;20270;-75
2022/06/26 14:19:10;;;;;;;4.10;2.45;;;;;;;;;;5062599;28;20033;-71
2022/06/26 14:21:35;;;;;;;5.20;2.60;;;;;;;;;;5057129;28;20512;-73
2022/06/26 14:26:44;;;;;;;4.72;2.85;;;;;;;;;;5064705;28;20315;-71
2022/06/26 14:29:09;;;;;;;5.60;2.45;;;;;;;;;;5066510;28;20036;-74
2022/06/26 14:31:34;;;;;;;4.87;3.10;;;;;;;;;;5057644;28;20097;-70
2022/06/26 14:34:03;;;;;;;3.00;2.70;;;;;;;;;;5066162;28;20386;-73
2022/06/26 14:36:28;;;;;;;5.90;2.70;;;;;;;;;;5066097;28;20017;-71
2022/06/26 14:38:53;;;;;;;4.82;2.88;;;;;;;;;;5059563;28;20037;-71
2022/06/26 14:41:18;;;;;;;4.18;2.80;;;;;;;;;;5059628;28;20020;-71
2022/06/26 14:43:44;;;;;;;5.47;2.67;;;;;;;;;;5067540;28;20036;-72
2022/06/26 14:46:09;;;;;;;3.78;2.10;;;;;;;;;;5065049;28;20606;-73